createdAt,value
2023-05-08T00:01:32.601Z,6.75
2023-05-08T00:03:59.961Z,6.60
2023-05-08T00:06:27.953Z,6.57
2023-05-08T00:08:57.838Z,6.55
2023-05-08T00:11:25.052Z,7.03
2023-05-08T00:16:35.917Z,7.30
2023-05-08T00:19:03.233Z,6.57
2023-05-08T00:21:31.429Z,6.88
2023-05-08T00:24:16.314Z,7.60
2023-05-08T00:26:44.447Z,7.40
2023-05-08T00:29:11.836Z,6.93
2023-05-08T00:31:39.784Z,6.63
2023-05-08T00:34:06.641Z,7.38
2023-05-08T00:36:33.987Z,7.18
2023-05-08T00:39:01.005Z,5.85
2023-05-08T00:41:27.801Z,6.10
2023-05-08T00:43:55.732Z,4.75
2023-05-08T00:46:28.723Z,5.63
2023-05-08T00:48:55.859Z,6.43
2023-05-08T00:51:23.381Z,6.63
2023-05-08T00:53:50.766Z,6.40
2023-05-08T00:59:02.450Z,6.25
2023-05-08T01:01:37.435Z,6.55
2023-05-08T01:04:07.093Z,6.95
2023-05-08T01:06:40.531Z,6.28
2023-05-08T01:09:08.369Z,6.40
2023-05-08T01:11:44.633Z,6.63
2023-05-08T01:14:20.284Z,6.47
2023-05-08T01:17:01.327Z,6.30
2023-05-08T01:19:58.194Z,6.57
2023-05-08T01:22:33.972Z,6.25
2023-05-08T01:25:22.384Z,7.07
2023-05-08T01:28:26.425Z,6.80
2023-05-08T01:31:16.044Z,5.60
2023-05-08T01:34:01.320Z,6.25
2023-05-08T01:36:50.532Z,5.57
2023-05-08T01:39:55.960Z,6.55
2023-05-08T01:43:00.578Z,5.55
2023-05-08T01:45:32.993Z,5.78
2023-05-08T01:48:08.337Z,5.57
2023-05-08T01:53:38.059Z,6.07
2023-05-08T01:56:11.463Z,6.00
2023-05-08T01:58:42.418Z,6.07
2023-05-08T02:01:11.879Z,5.60
2023-05-08T02:03:50.902Z,7.00
2023-05-08T02:06:21.463Z,6.18
2023-05-08T02:08:50.033Z,7.03
2023-05-08T02:11:18.791Z,6.40
2023-05-08T02:13:51.173Z,6.70
2023-05-08T02:16:19.182Z,6.22
2023-05-08T02:18:52.511Z,6.72
2023-05-08T02:21:29.992Z,6.70
2023-05-08T02:23:58.293Z,6.35
2023-05-08T02:29:09.083Z,5.78
2023-05-08T02:31:37.547Z,6.00
2023-05-08T02:34:05.450Z,5.78
2023-05-08T02:36:36.106Z,6.38
2023-05-08T02:39:03.641Z,7.38
2023-05-08T02:41:33.723Z,7.55
2023-05-08T02:44:01.046Z,8.20
2023-05-08T02:46:49.053Z,7.72
2023-05-08T02:49:19.329Z,7.55
2023-05-08T02:52:18.531Z,7.38
2023-05-08T02:55:03.856Z,7.78
2023-05-08T02:57:43.888Z,6.45
2023-05-08T03:00:14.095Z,5.70
2023-05-08T03:02:44.701Z,6.53
2023-05-08T03:05:19.442Z,6.05
2023-05-08T03:07:50.555Z,5.78
2023-05-08T03:10:19.299Z,5.85
2023-05-08T03:12:58.642Z,6.20
2023-05-08T03:15:39.662Z,5.65
2023-05-08T03:26:21.541Z,5.13
2023-05-08T03:28:53.805Z,5.35
2023-05-08T03:31:22.716Z,5.18
2023-05-08T03:33:53.561Z,5.60
2023-05-08T03:36:24.552Z,5.57
2023-05-08T03:38:51.411Z,6.10
2023-05-08T03:41:18.265Z,6.32
2023-05-08T03:43:46.510Z,6.30
2023-05-08T03:54:11.696Z,7.50
2023-05-08T03:56:38.609Z,8.75
2023-05-08T03:59:13.353Z,8.43
2023-05-08T04:01:46.292Z,8.35
2023-05-08T04:04:39.052Z,8.75
2023-05-08T04:07:35.176Z,8.35
2023-05-08T04:10:26.110Z,8.80
2023-05-08T04:13:14.598Z,8.20
2023-05-08T04:16:05.019Z,8.95
2023-05-08T04:18:36.874Z,8.40
2023-05-08T04:21:08.931Z,7.50
2023-05-08T04:23:37.642Z,9.13
2023-05-08T04:26:06.751Z,7.75
2023-05-08T04:28:35.303Z,8.07
2023-05-08T04:31:04.167Z,9.00
2023-05-08T04:33:31.383Z,9.23
2023-05-08T04:36:05.215Z,8.32
2023-05-08T04:38:36.079Z,8.75
2023-05-08T04:41:02.903Z,8.10
2023-05-08T04:43:29.884Z,8.50
2023-05-08T04:45:56.755Z,8.05
2023-05-08T04:48:23.390Z,8.02
2023-05-08T04:50:52.488Z,7.40
2023-05-08T04:53:31.386Z,7.82
2023-05-08T04:56:04.564Z,8.55
2023-05-08T04:58:31.475Z,7.75
2023-05-08T05:01:02.534Z,7.40
2023-05-08T05:03:29.513Z,8.13
2023-05-08T05:06:04.820Z,8.52
2023-05-08T05:08:31.672Z,8.48
2023-05-08T05:10:58.477Z,9.05
2023-05-08T05:13:43.876Z,9.05
2023-05-08T05:16:21.056Z,9.50
2023-05-08T05:18:50.397Z,9.10
2023-05-08T05:21:17.315Z,8.57
2023-05-08T05:23:53.182Z,8.38
2023-05-08T05:26:21.800Z,9.55
2023-05-08T05:28:49.122Z,9.40
2023-05-08T05:31:16.242Z,9.35
2023-05-08T05:33:43.256Z,8.95
2023-05-08T05:36:10.167Z,10.35
2023-05-08T05:38:37.017Z,9.18
2023-05-08T05:41:03.892Z,9.25
2023-05-08T05:43:39.519Z,8.30
2023-05-08T05:46:07.814Z,8.98
2023-05-08T05:48:34.681Z,8.85
2023-05-08T05:51:05.850Z,7.85
2023-05-08T05:53:40.860Z,8.82
2023-05-08T05:58:52.020Z,8.90
2023-05-08T06:01:19.085Z,10.20
2023-05-08T06:03:46.208Z,9.98
2023-05-08T06:06:13.418Z,9.68
2023-05-08T06:08:53.751Z,10.00
2023-05-08T06:11:22.857Z,10.25
2023-05-08T06:13:50.689Z,9.82
2023-05-08T06:16:17.645Z,9.25
2023-05-08T06:21:39.929Z,9.70
2023-05-08T06:24:07.908Z,9.15
2023-05-08T06:26:37.187Z,8.63
2023-05-08T06:29:04.708Z,10.00
2023-05-08T06:31:31.758Z,9.65
2023-05-08T06:33:59.019Z,8.52
2023-05-08T06:36:27.424Z,7.82
2023-05-08T06:38:57.511Z,7.30
2023-05-08T06:41:38.040Z,7.85
2023-05-08T06:44:04.899Z,8.48
2023-05-08T06:46:31.659Z,7.63
2023-05-08T06:48:58.596Z,7.55
2023-05-08T06:51:27.681Z,5.45
2023-05-08T06:53:54.567Z,5.65
2023-05-08T06:56:22.860Z,5.65
2023-05-08T06:58:57.103Z,5.43
2023-05-08T07:01:32.834Z,5.82
2023-05-08T07:03:59.671Z,5.28
2023-05-08T07:06:27.742Z,5.00
2023-05-08T07:08:55.877Z,5.35
2023-05-08T07:11:22.724Z,4.82
2023-05-08T07:13:52.521Z,4.68
2023-05-08T07:16:19.408Z,5.03
2023-05-08T07:18:46.176Z,4.88
2023-05-08T07:21:13.354Z,5.20
2023-05-08T07:23:40.238Z,5.40
2023-05-08T07:26:08.358Z,4.40
2023-05-08T07:28:35.634Z,4.57
2023-05-08T07:31:07.520Z,4.20
2023-05-08T07:33:34.802Z,4.32
2023-05-08T07:36:02.016Z,3.67
2023-05-08T07:38:29.150Z,3.95
2023-05-08T07:40:57.635Z,3.72
2023-05-08T07:43:24.560Z,4.20
2023-05-08T07:45:51.539Z,4.03
2023-05-08T07:50:59.190Z,3.88
2023-05-08T07:53:26.225Z,3.42
2023-05-08T07:55:53.100Z,4.20
2023-05-08T07:58:21.593Z,3.55
2023-05-08T08:00:49.442Z,3.80
2023-05-08T08:03:16.295Z,3.42
2023-05-08T08:05:43.246Z,4.43
2023-05-08T08:08:10.163Z,4.00
2023-05-08T08:10:37.026Z,3.85
2023-05-08T08:13:04.220Z,3.60
2023-05-08T08:15:31.320Z,3.15
2023-05-08T08:17:58.186Z,3.42
2023-05-08T08:20:25.334Z,3.20
2023-05-08T08:22:52.068Z,3.38
2023-05-08T08:25:21.226Z,3.45
2023-05-08T08:27:48.318Z,3.50
2023-05-08T08:30:17.554Z,3.22
2023-05-08T08:32:46.195Z,3.15
2023-05-08T08:35:13.939Z,3.53
2023-05-08T08:37:41.096Z,3.33
2023-05-08T08:40:08.502Z,3.15
2023-05-08T08:42:35.685Z,3.33
2023-05-08T08:45:02.697Z,3.20
2023-05-08T08:47:34.957Z,3.60
2023-05-08T08:50:04.090Z,2.88
2023-05-08T08:52:39.016Z,3.30
2023-05-08T08:55:10.304Z,3.58
2023-05-08T08:57:43.800Z,4.10
2023-05-08T09:00:12.406Z,3.80
2023-05-08T09:02:50.077Z,3.20
2023-05-08T09:05:18.237Z,3.10
2023-05-08T09:07:45.340Z,4.03
2023-05-08T09:10:15.613Z,3.70
2023-05-08T09:12:42.946Z,4.22
2023-05-08T09:15:10.019Z,4.18
2023-05-08T09:17:37.038Z,4.22
2023-05-08T09:20:05.580Z,3.10
2023-05-08T09:22:36.013Z,4.07
2023-05-08T09:25:12.523Z,3.42
2023-05-08T09:27:39.779Z,3.35
2023-05-08T09:30:11.753Z,3.47
2023-05-08T09:32:42.398Z,3.75
2023-05-08T09:35:10.524Z,3.63
2023-05-08T09:37:43.957Z,3.83
2023-05-08T09:40:21.973Z,4.32
2023-05-08T09:42:50.697Z,3.80
2023-05-08T09:45:32.018Z,3.50
2023-05-08T09:47:59.538Z,3.60
2023-05-08T09:50:26.955Z,3.80
2023-05-08T09:52:53.708Z,4.50
2023-05-08T09:55:29.793Z,4.53
2023-05-08T09:57:58.646Z,6.43
2023-05-08T10:00:27.425Z,7.20
2023-05-08T10:03:15.525Z,4.80
2023-05-08T10:05:42.910Z,5.20
2023-05-08T10:08:26.753Z,5.15
2023-05-08T10:10:53.961Z,5.78
2023-05-08T10:13:21.791Z,7.22
2023-05-08T10:15:54.835Z,6.15
2023-05-08T10:18:29.258Z,4.97
2023-05-08T10:20:57.780Z,5.45
2023-05-08T10:23:25.656Z,5.22
2023-05-08T10:25:58.948Z,5.53
2023-05-08T10:28:51.356Z,4.93
2023-05-08T10:31:18.993Z,5.72
2023-05-08T10:33:49.076Z,5.20
2023-05-08T10:36:17.120Z,5.15
2023-05-08T10:38:44.949Z,6.07
2023-05-08T10:41:12.749Z,5.60
2023-05-08T10:43:51.247Z,5.63
2023-05-08T10:49:30.528Z,6.13
2023-05-08T10:52:19.042Z,5.28
2023-05-08T10:55:06.488Z,5.13
2023-05-08T10:57:33.236Z,5.40
2023-05-08T11:00:12.757Z,5.63
2023-05-08T11:02:39.838Z,5.38
2023-05-08T11:05:20.815Z,6.10
2023-05-08T11:07:58.483Z,6.72
2023-05-08T11:10:37.333Z,6.82
2023-05-08T11:13:07.636Z,6.13
2023-05-08T11:15:39.088Z,6.25
2023-05-08T11:18:11.562Z,6.05
2023-05-08T11:20:54.762Z,6.10
2023-05-08T11:23:22.914Z,6.68
2023-05-08T11:26:17.899Z,5.97
2023-05-08T11:28:53.807Z,5.55
2023-05-08T11:31:29.727Z,5.70
2023-05-08T11:33:59.692Z,5.43
2023-05-08T11:36:26.784Z,5.60
2023-05-08T11:39:13.434Z,5.15
2023-05-08T11:41:43.800Z,4.57
2023-05-08T11:44:20.781Z,4.88
2023-05-08T11:49:37.677Z,5.47
2023-05-08T11:52:08.810Z,5.32
2023-05-08T11:54:39.298Z,5.80
2023-05-08T11:57:09.352Z,5.53
2023-05-08T11:59:37.207Z,7.88
2023-05-08T12:04:48.240Z,4.80
2023-05-08T12:09:57.518Z,5.18
2023-05-08T12:12:24.557Z,5.05
2023-05-08T12:14:52.454Z,5.18
2023-05-08T12:17:19.964Z,5.13
2023-05-08T12:19:49.946Z,5.18
2023-05-08T12:22:17.010Z,5.60
2023-05-08T12:24:44.477Z,5.38
2023-05-08T12:27:13.222Z,5.15
2023-05-08T12:29:45.184Z,4.63
2023-05-08T12:34:53.152Z,4.70
2023-05-08T12:37:29.749Z,4.13
2023-05-08T12:39:56.723Z,4.90
2023-05-08T12:42:41.411Z,3.85
2023-05-08T12:45:09.015Z,4.40
2023-05-08T12:47:35.881Z,4.15
2023-05-08T12:50:02.927Z,4.53
2023-05-08T12:52:29.735Z,3.90
2023-05-08T12:54:56.538Z,4.35
2023-05-08T12:57:26.194Z,4.15
2023-05-08T13:00:04.994Z,3.60
2023-05-08T13:02:32.415Z,3.67
2023-05-08T13:05:10.629Z,3.55
2023-05-08T13:07:37.908Z,4.38
2023-05-08T13:10:05.274Z,4.13
2023-05-08T13:12:57.220Z,4.47
2023-05-08T13:15:24.228Z,4.38
2023-05-08T13:17:51.605Z,5.55
2023-05-08T13:20:38.693Z,5.45
2023-05-08T13:23:06.248Z,4.20
2023-05-08T13:25:39.497Z,4.82
2023-05-08T13:28:07.478Z,4.80
2023-05-08T13:30:50.152Z,4.57
2023-05-08T13:33:17.242Z,3.85
2023-05-08T13:35:44.204Z,4.00
2023-05-08T13:38:10.926Z,3.80
2023-05-08T13:40:38.846Z,4.05
2023-05-08T13:43:11.428Z,4.18
2023-05-08T13:45:38.333Z,3.95
2023-05-08T13:48:05.856Z,3.90
2023-05-08T13:50:35.698Z,4.10
2023-05-08T13:53:02.540Z,3.58
2023-05-08T13:55:38.923Z,3.90
2023-05-08T13:58:05.728Z,3.30
2023-05-08T14:00:32.474Z,3.72
2023-05-08T14:02:59.290Z,3.55
2023-05-08T14:05:28.507Z,3.90
2023-05-08T14:07:55.349Z,3.45
2023-05-08T14:10:28.129Z,3.80
2023-05-08T14:15:37.279Z,3.75
2023-05-08T14:18:04.533Z,3.78
2023-05-08T14:20:31.320Z,4.20
2023-05-08T14:23:04.652Z,4.30
2023-05-08T14:25:31.517Z,3.95
2023-05-08T14:30:37.559Z,3.90
2023-05-08T14:33:04.757Z,3.90
2023-05-08T14:35:31.585Z,3.90
2023-05-08T14:37:58.491Z,4.70
2023-05-08T14:40:25.524Z,3.42
2023-05-08T14:42:55.277Z,3.80
2023-05-08T14:45:22.878Z,3.88
2023-05-08T14:47:55.398Z,4.30
2023-05-08T14:50:24.310Z,4.30
2023-05-08T14:52:51.259Z,3.58
2023-05-08T14:55:21.253Z,3.97
2023-05-08T14:57:48.559Z,4.20
2023-05-08T15:00:16.863Z,4.30
2023-05-08T15:02:45.069Z,3.17
2023-05-08T15:05:19.150Z,3.35
2023-05-08T15:07:47.208Z,4.03
2023-05-08T15:10:15.872Z,3.97
2023-05-08T15:12:48.076Z,4.00
2023-05-08T15:15:24.610Z,4.20
2023-05-08T15:17:55.783Z,4.45
2023-05-08T15:20:23.236Z,4.88
2023-05-08T15:22:50.082Z,4.90
2023-05-08T15:25:17.422Z,5.00
2023-05-08T15:27:44.341Z,5.32
2023-05-08T15:30:11.855Z,5.40
2023-05-08T15:32:40.445Z,5.60
2023-05-08T15:35:07.539Z,6.15
2023-05-08T15:37:34.250Z,7.07
2023-05-08T15:40:01.095Z,8.05
2023-05-08T15:42:27.884Z,11.90
2023-05-08T15:44:57.948Z,5.57
2023-05-08T15:47:27.393Z,5.55
2023-05-08T15:49:54.786Z,5.10
2023-05-08T15:52:22.875Z,4.93
2023-05-08T15:54:54.987Z,4.93
2023-05-08T15:57:27.262Z,5.53
2023-05-08T15:59:54.334Z,5.40
2023-05-08T16:02:21.251Z,6.53
2023-05-08T16:04:50.914Z,5.70
2023-05-08T16:07:17.981Z,5.88
2023-05-08T16:09:47.930Z,7.07
2023-05-08T16:12:14.950Z,6.97
2023-05-08T16:14:48.956Z,7.00
2023-05-08T16:17:16.071Z,6.60
2023-05-08T16:19:42.866Z,6.50
2023-05-08T16:22:26.844Z,6.18
2023-05-08T16:24:59.930Z,7.10
2023-05-08T16:27:28.803Z,6.82
2023-05-08T16:29:58.511Z,7.72
2023-05-08T16:32:27.362Z,7.97
2023-05-08T16:34:58.302Z,7.97
2023-05-08T16:37:26.276Z,8.25
2023-05-08T16:39:55.785Z,8.00
2023-05-08T16:42:23.926Z,7.28
2023-05-08T16:44:50.882Z,6.53
2023-05-08T16:47:18.382Z,6.95
2023-05-08T16:49:45.484Z,7.25
2023-05-08T16:52:17.549Z,6.63
2023-05-08T16:54:50.015Z,7.80
2023-05-08T16:57:17.277Z,7.90
2023-05-08T16:59:46.752Z,8.68
2023-05-08T17:02:19.866Z,7.60
2023-05-08T17:04:51.494Z,7.95
2023-05-08T17:07:20.158Z,7.32
2023-05-08T17:09:49.404Z,6.75
2023-05-08T17:12:16.154Z,6.70
2023-05-08T17:14:43.027Z,6.88
2023-05-08T17:17:10.000Z,7.28
2023-05-08T17:19:36.916Z,7.28
2023-05-08T17:22:03.645Z,7.18
2023-05-08T17:24:31.408Z,7.57
2023-05-08T17:26:58.952Z,8.00
2023-05-08T17:29:25.999Z,7.70
2023-05-08T17:31:53.070Z,7.50
2023-05-08T17:34:21.067Z,7.57
2023-05-08T17:36:47.917Z,8.38
2023-05-08T17:39:15.060Z,8.55
2023-05-08T17:41:41.962Z,7.50
2023-05-08T17:44:08.979Z,8.68
2023-05-08T17:46:35.946Z,8.65
2023-05-08T17:49:02.735Z,7.82
2023-05-08T17:51:29.695Z,7.70
2023-05-08T17:53:56.930Z,7.80
2023-05-08T17:56:23.970Z,8.20
2023-05-08T17:58:52.587Z,9.77
2023-05-08T18:01:33.848Z,10.23
2023-05-08T18:06:49.836Z,10.65
2023-05-08T18:09:16.793Z,12.13
2023-05-08T18:11:43.699Z,11.52
2023-05-08T18:14:12.186Z,12.27
2023-05-08T18:16:40.747Z,11.25
2023-05-08T18:19:07.552Z,11.43
2023-05-08T18:21:34.322Z,10.90
2023-05-08T18:24:01.154Z,10.65
2023-05-08T18:26:27.980Z,10.80
2023-05-08T18:28:58.025Z,11.18
2023-05-08T18:31:25.433Z,11.80
2023-05-08T18:33:52.316Z,11.57
2023-05-08T18:36:27.669Z,11.20
2023-05-08T18:38:54.563Z,9.05
2023-05-08T18:41:27.346Z,8.98
2023-05-08T18:43:54.303Z,10.73
2023-05-08T18:46:27.310Z,10.95
2023-05-08T18:48:54.151Z,10.65
2023-05-08T18:51:27.457Z,12.38
2023-05-08T18:53:57.262Z,10.38
2023-05-08T18:56:24.366Z,11.57
2023-05-08T18:58:51.168Z,10.77
2023-05-08T19:01:27.102Z,10.70
2023-05-08T19:03:54.532Z,10.07
2023-05-08T19:06:21.480Z,9.43
2023-05-08T19:08:48.618Z,9.88
2023-05-08T19:11:16.048Z,9.93
2023-05-08T19:13:42.762Z,10.07
2023-05-08T19:16:09.688Z,10.02
2023-05-08T19:18:36.776Z,11.18
2023-05-08T19:21:03.831Z,9.13
2023-05-08T19:23:30.947Z,9.95
2023-05-08T19:25:58.528Z,10.30
2023-05-08T19:28:25.462Z,11.30
2023-05-08T19:30:52.769Z,10.30
2023-05-08T19:33:22.268Z,9.23
2023-05-08T19:35:49.156Z,9.10
2023-05-08T19:38:16.141Z,10.18
2023-05-08T19:40:55.450Z,9.75
2023-05-08T19:43:23.969Z,10.32
2023-05-08T19:45:50.941Z,10.48
2023-05-08T19:48:19.633Z,10.90
2023-05-08T19:53:37.592Z,9.77
2023-05-08T19:56:05.110Z,10.48
2023-05-08T19:58:32.024Z,10.48
2023-05-08T20:00:59.346Z,10.40
2023-05-08T20:03:26.785Z,9.30
2023-05-08T20:05:53.887Z,10.20
2023-05-08T20:08:21.090Z,10.75
2023-05-08T20:10:50.669Z,10.77
2023-05-08T20:13:17.884Z,12.10
2023-05-08T20:15:44.859Z,11.15
2023-05-08T20:18:11.961Z,13.05
2023-05-08T20:20:38.855Z,12.60
2023-05-08T20:23:05.784Z,11.95
2023-05-08T20:25:34.745Z,14.43
2023-05-08T20:28:01.806Z,13.90
2023-05-08T20:30:29.889Z,13.10
2023-05-08T20:33:02.416Z,12.00
2023-05-08T20:35:29.504Z,9.05
2023-05-08T20:37:58.887Z,9.63
2023-05-08T20:40:29.524Z,10.55
2023-05-08T20:42:56.587Z,10.50
2023-05-08T20:45:24.272Z,9.77
2023-05-08T20:47:53.708Z,9.77
2023-05-08T20:52:56.889Z,10.15
2023-05-08T20:55:33.325Z,9.10
2023-05-08T20:58:20.209Z,9.90
2023-05-08T21:00:47.521Z,8.77
2023-05-08T21:03:14.882Z,9.30
2023-05-08T21:05:50.955Z,8.52
2023-05-08T21:08:21.741Z,8.40
2023-05-08T21:10:55.263Z,8.60
2023-05-08T21:13:22.777Z,8.52
2023-05-08T21:15:52.677Z,7.97
2023-05-08T21:18:19.897Z,7.03
2023-05-08T21:20:50.483Z,6.78
2023-05-08T21:23:18.722Z,7.40
2023-05-08T21:25:49.531Z,7.70
2023-05-08T21:28:18.162Z,7.90
2023-05-08T21:30:45.708Z,7.60
2023-05-08T21:33:14.170Z,6.90
2023-05-08T21:35:43.900Z,7.05
2023-05-08T21:38:13.947Z,7.30
2023-05-08T21:40:40.920Z,8.15
2023-05-08T21:43:08.106Z,8.15
2023-05-08T21:45:38.705Z,8.30
2023-05-08T21:48:09.439Z,7.90
2023-05-08T21:50:39.181Z,7.65
2023-05-08T21:53:06.564Z,8.02
2023-05-08T21:55:37.561Z,6.85
2023-05-08T21:58:09.157Z,7.68
2023-05-08T22:03:18.719Z,6.57
2023-05-08T22:05:45.768Z,7.35
2023-05-08T22:08:19.630Z,6.90
2023-05-08T22:10:46.673Z,7.13
2023-05-08T22:13:13.883Z,7.18
2023-05-08T22:15:40.807Z,7.68
2023-05-08T22:18:07.998Z,8.10
2023-05-08T22:20:34.936Z,7.25
2023-05-08T22:23:01.801Z,7.05
2023-05-08T22:25:30.054Z,6.75
2023-05-08T22:27:56.874Z,7.25
2023-05-08T22:30:23.926Z,6.97
2023-05-08T22:32:56.236Z,7.32
2023-05-08T22:35:25.426Z,6.93
2023-05-08T22:37:56.116Z,6.63
2023-05-08T22:40:23.606Z,6.53
2023-05-08T22:42:55.926Z,6.45
2023-05-08T22:45:23.418Z,7.05
2023-05-08T22:47:50.639Z,6.63
2023-05-08T22:50:17.568Z,6.28
2023-05-08T22:52:44.538Z,6.75
2023-05-08T22:55:11.882Z,6.88
2023-05-08T22:57:38.978Z,7.20
2023-05-08T23:00:21.898Z,7.10
2023-05-08T23:02:52.010Z,6.93
2023-05-08T23:05:19.017Z,6.57
2023-05-08T23:10:26.789Z,6.38
2023-05-08T23:12:53.796Z,7.40
2023-05-08T23:15:21.340Z,6.60
2023-05-08T23:17:51.692Z,6.60
2023-05-08T23:20:28.771Z,6.80
2023-05-08T23:23:03.426Z,6.57
2023-05-08T23:26:21.768Z,6.80
2023-05-08T23:28:56.505Z,6.40
2023-05-08T23:31:23.857Z,6.75
2023-05-08T23:34:04.339Z,6.22
2023-05-08T23:36:32.521Z,6.75
2023-05-08T23:38:59.663Z,5.93
2023-05-08T23:41:26.428Z,6.65
2023-05-08T23:43:53.294Z,6.40
2023-05-08T23:46:20.355Z,6.50
2023-05-08T23:48:47.232Z,6.03
2023-05-08T23:51:14.187Z,6.20
2023-05-08T23:53:41.462Z,6.70
2023-05-08T23:56:08.261Z,7.05
2023-05-08T23:58:37.840Z,6.45
